Time;durP1;ratioP1;P1;durP2;ratioP2;P2;SDS_P1;SDS_P2;PMS_P1;PMS_P2;Temp;Humidity;BMP_temperature;BMP_pressure;BME280_temperature;BME280_humidity;BME280_pressure;Samples;Min_cycle;Max_cycle;Signal;HPM_P1;HPM_P2
2022/04/20 00:01:08;;;;;;;7.95;3.88;;;6.80;99.90;;;;;;5048475;28;20151;-73
2022/04/20 00:03:34;;;;;;;6.93;4.00;;;6.80;99.90;;;;;;5049259;28;20040;-74
2022/04/20 00:05:59;;;;;;;6.80;4.65;;;6.70;99.90;;;;;;5065648;28;20064;-74
2022/04/20 00:08:25;;;;;;;7.32;4.03;;;6.70;99.90;;;;;;5082335;28;20101;-74
2022/04/20 00:10:51;;;;;;;6.20;4.05;;;6.70;99.90;;;;;;5072874;28;20028;-73
2022/04/20 00:13:17;;;;;;;6.40;4.43;;;6.60;99.90;;;;;;5082633;28;20043;-73
2022/04/20 00:15:42;;;;;;;7.40;4.57;;;6.50;99.90;;;;;;5083398;28;20040;-73
2022/04/20 00:18:08;;;;;;;8.13;4.30;;;6.50;99.90;;;;;;5085191;28;20135;-73
2022/04/20 00:20:34;;;;;;;7.68;4.57;;;6.50;99.90;;;;;;5062292;28;20493;-73
2022/04/20 00:23:00;;;;;;;8.40;4.40;;;6.40;99.90;;;;;;5066902;28;20519;-73
2022/04/20 00:25:25;;;;;;;7.95;5.00;;;6.40;99.90;;;;;;5087224;28;20052;-73
2022/04/20 00:27:51;;;;;;;11.02;5.22;;;6.40;99.90;;;;;;5070106;28;20478;-73
2022/04/20 00:30:17;;;;;;;7.20;4.93;;;6.40;99.90;;;;;;5071178;28;20532;-73
2022/04/20 00:32:43;;;;;;;9.90;5.10;;;6.40;99.90;;;;;;5070391;28;20036;-73
2022/04/20 00:35:13;;;;;;;10.80;4.95;;;6.30;99.90;;;;;;5083629;28;20063;-74
2022/04/20 00:37:41;;;;;;;6.28;4.40;;;6.30;99.90;;;;;;5083455;28;20032;-73
2022/04/20 00:40:08;;;;;;;9.15;5.50;;;6.30;99.90;;;;;;5096923;28;20104;-73
2022/04/20 00:42:36;;;;;;;8.40;5.10;;;6.30;99.90;;;;;;5086333;28;20137;-73
2022/04/20 00:45:02;;;;;;;7.63;4.57;;;6.30;99.90;;;;;;5083108;28;20082;-73
2022/04/20 00:47:29;;;;;;;6.82;4.75;;;6.20;99.90;;;;;;5086288;28;20503;-73
2022/04/20 00:49:56;;;;;;;10.18;5.35;;;6.30;99.90;;;;;;5082565;28;20496;-73
2022/04/20 00:52:22;;;;;;;8.90;5.18;;;6.20;99.90;;;;;;5088419;28;20121;-73
2022/04/20 00:54:48;;;;;;;7.28;4.80;;;6.20;99.90;;;;;;5066944;28;20518;-73
2022/04/20 00:57:15;;;;;;;9.15;5.18;;;6.20;99.90;;;;;;5052604;28;20163;-73
2022/04/20 00:59:42;;;;;;;7.28;5.03;;;6.20;99.90;;;;;;5069753;28;20485;-74
2022/04/20 01:02:08;;;;;;;6.03;4.43;;;6.10;99.90;;;;;;5085464;28;20050;-73
2022/04/20 01:04:34;;;;;;;7.95;4.63;;;6.10;99.90;;;;;;5083408;28;20044;-73
2022/04/20 01:07:13;;;;;;;7.18;5.10;;;6.00;99.90;;;;;;5051853;28;20505;-73
2022/04/20 01:09:41;;;;;;;8.75;5.03;;;6.00;99.90;;;;;;5086727;28;20114;-73
2022/04/20 01:12:08;;;;;;;9.05;5.43;;;6.00;99.90;;;;;;5084107;28;20113;-73
2022/04/20 01:14:34;;;;;;;10.73;5.20;;;6.00;99.90;;;;;;5068746;28;20068;-73
2022/04/20 01:17:01;;;;;;;8.10;5.32;;;6.00;99.90;;;;;;5084335;28;20149;-73
2022/04/20 01:19:40;;;;;;;7.28;5.05;;;5.90;99.90;;;;;;5085515;28;20044;-73
2022/04/20 01:22:08;;;;;;;11.25;5.70;;;5.90;99.90;;;;;;5066269;28;20036;-73
2022/04/20 01:24:35;;;;;;;10.73;6.15;;;5.90;99.90;;;;;;5079712;28;20024;-73
2022/04/20 01:27:02;;;;;;;9.63;5.45;;;5.90;99.90;;;;;;5069261;28;20048;-73
2022/04/20 01:29:28;;;;;;;9.27;5.40;;;5.90;99.90;;;;;;5086239;28;20451;-73
2022/04/20 01:31:55;;;;;;;10.32;5.50;;;5.80;99.90;;;;;;5069842;28;20035;-73
2022/04/20 01:34:21;;;;;;;7.72;5.45;;;5.80;99.90;;;;;;5066100;28;20353;-73
2022/04/20 01:36:47;;;;;;;8.75;5.78;;;5.70;99.90;;;;;;5068484;28;20040;-73
2022/04/20 01:39:13;;;;;;;8.35;5.70;;;5.70;99.90;;;;;;5079062;28;20062;-73
2022/04/20 01:41:40;;;;;;;9.07;5.80;;;5.70;99.90;;;;;;5085069;28;20043;-73
2022/04/20 01:44:05;;;;;;;8.88;5.40;;;5.60;99.90;;;;;;5085320;28;20378;-73
2022/04/20 01:46:31;;;;;;;8.48;5.75;;;5.60;99.90;;;;;;5086190;28;21494;-73
2022/04/20 01:48:57;;;;;;;8.95;5.75;;;5.60;99.90;;;;;;5050402;28;20101;-73
2022/04/20 01:54:07;;;;;;;8.20;5.75;;;5.50;99.90;;;;;;5097513;28;20067;-73
2022/04/20 01:56:33;;;;;;;7.63;4.95;;;5.50;99.90;;;;;;5051066;28;20446;-73
2022/04/20 01:58:59;;;;;;;9.30;5.38;;;5.50;99.90;;;;;;5085909;28;20082;-73
2022/04/20 02:04:09;;;;;;;11.23;6.00;;;5.50;99.90;;;;;;5082754;28;20075;-73
2022/04/20 02:06:35;;;;;;;9.98;5.90;;;5.50;99.90;;;;;;5048966;28;20063;-73
2022/04/20 02:09:01;;;;;;;9.80;5.60;;;5.40;99.90;;;;;;5067374;28;20045;-73
2022/04/20 02:11:27;;;;;;;9.50;5.38;;;5.40;99.90;;;;;;5068457;28;20048;-73
2022/04/20 02:13:53;;;;;;;9.10;5.45;;;5.40;99.90;;;;;;5079253;28;20040;-73
2022/04/20 02:16:18;;;;;;;9.18;5.72;;;5.40;99.90;;;;;;5061258;28;20043;-74
2022/04/20 02:18:44;;;;;;;8.75;5.75;;;5.40;99.90;;;;;;5082409;28;20126;-73
2022/04/20 02:21:10;;;;;;;8.00;5.90;;;5.40;99.90;;;;;;5084931;28;20539;-73
2022/04/20 02:23:36;;;;;;;9.57;5.45;;;5.30;99.90;;;;;;5085193;28;20408;-73
2022/04/20 02:26:02;;;;;;;11.80;5.43;;;5.30;99.90;;;;;;5081535;28;20048;-73
2022/04/20 02:28:28;;;;;;;12.15;6.05;;;5.30;99.90;;;;;;5060599;28;20184;-73
2022/04/20 02:30:54;;;;;;;7.93;5.13;;;5.30;99.90;;;;;;5068343;28;20126;-73
2022/04/20 02:33:19;;;;;;;9.02;5.47;;;5.30;99.90;;;;;;5084137;28;20043;-73
2022/04/20 02:35:46;;;;;;;9.23;6.15;;;5.20;99.90;;;;;;5068244;28;20072;-73
2022/04/20 02:38:14;;;;;;;8.73;5.57;;;5.10;99.90;;;;;;5068379;28;20036;-73
2022/04/20 02:40:41;;;;;;;8.93;6.25;;;5.10;99.90;;;;;;5101487;28;20039;-73
2022/04/20 02:43:07;;;;;;;9.77;6.25;;;5.10;99.90;;;;;;5089986;28;20048;-74
2022/04/20 02:45:34;;;;;;;8.68;6.07;;;5.00;99.90;;;;;;5089299;28;20412;-73
2022/04/20 02:48:00;;;;;;;11.02;6.00;;;5.00;99.90;;;;;;5090102;28;20044;-74
2022/04/20 02:50:27;;;;;;;7.13;5.40;;;5.00;99.90;;;;;;5087629;28;20031;-73
2022/04/20 02:52:54;;;;;;;9.25;5.85;;;4.90;99.90;;;;;;5050669;28;20549;-73
2022/04/20 02:55:20;;;;;;;9.73;5.70;;;4.90;99.90;;;;;;5084238;28;20044;-73
2022/04/20 02:57:46;;;;;;;9.00;5.70;;;4.90;99.90;;;;;;5067113;28;20396;-73
2022/04/20 03:00:12;;;;;;;10.35;5.75;;;5.10;99.90;;;;;;5077335;28;20035;-73
2022/04/20 03:02:38;;;;;;;12.77;6.40;;;4.80;99.90;;;;;;5084091;28;20032;-73
2022/04/20 03:05:05;;;;;;;9.82;6.28;;;4.80;99.90;;;;;;5085028;28;20043;-73
2022/04/20 03:07:31;;;;;;;12.43;6.65;;;4.80;99.90;;;;;;5083584;28;20424;-73
2022/04/20 03:09:57;;;;;;;10.25;6.45;;;4.70;99.90;;;;;;5067291;28;20036;-73
2022/04/20 03:12:22;;;;;;;8.55;5.90;;;4.70;99.90;;;;;;5067014;28;20040;-73
2022/04/20 03:14:48;;;;;;;9.40;6.35;;;4.70;99.90;;;;;;5082282;28;20064;-73
2022/04/20 03:17:14;;;;;;;8.38;5.95;;;4.70;99.90;;;;;;5072815;28;20622;-73
2022/04/20 03:19:40;;;;;;;12.45;5.93;;;4.60;99.90;;;;;;5083883;28;20042;-73
2022/04/20 03:22:05;;;;;;;11.13;6.68;;;4.60;99.90;;;;;;5058763;28;20047;-73
2022/04/20 03:24:31;;;;;;;10.63;6.50;;;4.60;99.90;;;;;;5063476;28;20140;-73
2022/04/20 03:26:57;;;;;;;12.88;6.20;;;4.50;99.90;;;;;;5061852;28;20627;-73
2022/04/20 03:29:23;;;;;;;9.80;5.80;;;4.50;99.90;;;;;;5063832;28;20252;-73
2022/04/20 03:31:50;;;;;;;11.13;6.75;;;4.50;99.90;;;;;;5080090;28;21041;-73
2022/04/20 03:34:15;;;;;;;13.20;6.47;;;4.50;99.90;;;;;;5063879;28;20032;-73
2022/04/20 03:36:41;;;;;;;14.45;7.07;;;4.40;99.90;;;;;;5045910;28;20037;-73
2022/04/20 03:39:07;;;;;;;10.98;6.28;;;4.30;99.90;;;;;;5081886;28;20149;-73
2022/04/20 03:41:33;;;;;;;10.45;6.25;;;4.30;99.90;;;;;;5065306;28;20040;-73
2022/04/20 03:43:58;;;;;;;13.57;6.47;;;4.30;99.90;;;;;;5082217;28;20417;-73
2022/04/20 03:46:24;;;;;;;9.88;5.93;;;4.20;99.90;;;;;;5084095;28;20058;-73
2022/04/20 03:48:50;;;;;;;14.63;6.70;;;4.20;99.90;;;;;;5082947;28;20467;-73
2022/04/20 03:51:16;;;;;;;11.70;7.25;;;4.30;99.90;;;;;;5066119;28;20054;-73
2022/04/20 03:53:42;;;;;;;11.50;7.28;;;4.20;99.90;;;;;;5045220;28;20385;-73
2022/04/20 03:56:08;;;;;;;14.23;8.18;;;4.50;99.90;;;;;;5057484;28;20039;-73
2022/04/20 03:58:33;;;;;;;11.75;8.38;;;4.10;99.90;;;;;;5081182;28;20074;-73
2022/04/20 04:01:00;;;;;;;10.00;7.13;;;4.10;99.90;;;;;;5063037;28;20040;-73
2022/04/20 04:03:26;;;;;;;12.57;7.15;;;4.10;99.90;;;;;;5079502;28;20047;-73
2022/04/20 04:05:52;;;;;;;11.65;7.10;;;4.00;99.90;;;;;;5082657;28;20136;-73
2022/04/20 04:08:18;;;;;;;10.63;7.18;;;4.00;99.90;;;;;;5063258;28;20127;-73
2022/04/20 04:10:44;;;;;;;12.18;7.85;;;4.00;99.90;;;;;;5081003;28;20179;-73
2022/04/20 04:13:09;;;;;;;11.25;7.05;;;4.00;99.90;;;;;;5065450;28;20040;-73
2022/04/20 04:15:35;;;;;;;12.25;7.45;;;4.00;99.90;;;;;;5097336;28;20542;-73
2022/04/20 04:18:04;;;;;;;14.13;6.75;;;3.90;99.90;;;;;;5050343;28;20036;-73
2022/04/20 04:20:30;;;;;;;10.63;6.57;;;3.90;99.90;;;;;;5081817;28;20028;-73
2022/04/20 04:22:56;;;;;;;11.88;7.00;;;3.90;99.90;;;;;;5080854;28;20943;-73
2022/04/20 04:25:22;;;;;;;10.77;7.05;;;3.90;99.90;;;;;;5095385;28;20507;-73
2022/04/20 04:27:48;;;;;;;9.65;6.75;;;3.80;99.90;;;;;;5082572;28;20036;-73
2022/04/20 04:30:14;;;;;;;11.25;6.78;;;3.80;99.90;;;;;;5083418;28;20064;-73
2022/04/20 04:32:40;;;;;;;10.73;6.68;;;3.80;99.90;;;;;;5083712;28;20036;-73
2022/04/20 04:35:08;;;;;;;10.85;6.95;;;3.70;99.90;;;;;;5080033;28;20039;-73
2022/04/20 04:37:35;;;;;;;12.18;7.00;;;3.80;99.90;;;;;;5088092;28;20115;-73
2022/04/20 04:40:02;;;;;;;11.43;6.75;;;3.80;99.90;;;;;;5088518;28;20459;-73
2022/04/20 04:42:27;;;;;;;11.27;7.00;;;3.70;99.90;;;;;;5088331;28;20036;-73
2022/04/20 04:44:53;;;;;;;14.75;6.70;;;3.70;99.90;;;;;;5063410;28;20028;-73
2022/04/20 04:50:04;;;;;;;11.10;6.90;;;3.80;99.90;;;;;;5086558;28;20048;-74
2022/04/20 04:52:31;;;;;;;11.23;6.18;;;4.30;99.90;;;;;;5083235;28;20040;-74
2022/04/20 04:54:57;;;;;;;12.00;6.82;;;3.80;99.90;;;;;;5083606;28;20040;-74
2022/04/20 04:57:22;;;;;;;11.13;6.60;;;3.80;99.90;;;;;;5088287;28;20067;-74
2022/04/20 04:59:48;;;;;;;10.30;6.68;;;3.80;99.90;;;;;;5058713;28;20111;-74
2022/04/20 05:02:14;;;;;;;11.65;6.88;;;3.80;99.90;;;;;;5072169;28;20048;-73
2022/04/20 05:04:43;;;;;;;11.10;6.85;;;3.80;99.90;;;;;;5073188;28;20044;-73
2022/04/20 05:07:09;;;;;;;10.25;6.28;;;3.80;99.90;;;;;;5091126;28;20072;-74
2022/04/20 05:09:35;;;;;;;10.07;6.22;;;3.80;99.90;;;;;;5091486;28;20497;-73
2022/04/20 05:12:01;;;;;;;9.15;6.50;;;3.80;99.90;;;;;;5080095;28;20123;-74
2022/04/20 05:14:27;;;;;;;14.32;6.97;;;3.90;99.90;;;;;;5082384;28;20044;-73
2022/04/20 05:16:55;;;;;;;12.18;6.68;;;3.90;99.90;;;;;;5080597;28;20133;-74
2022/04/20 05:19:21;;;;;;;14.27;7.45;;;3.90;99.90;;;;;;5101482;28;20044;-74
2022/04/20 05:21:48;;;;;;;10.07;7.30;;;3.90;99.90;;;;;;5072405;28;20040;-74
2022/04/20 05:24:14;;;;;;;13.93;6.40;;;4.00;99.90;;;;;;5084339;28;20040;-73
2022/04/20 05:26:40;;;;;;;10.27;6.97;;;4.00;99.90;;;;;;5078788;28;20120;-74
2022/04/20 05:29:07;;;;;;;10.38;7.03;;;4.10;99.90;;;;;;5048330;28;20174;-74
2022/04/20 05:31:33;;;;;;;11.82;6.07;;;4.10;99.90;;;;;;5066540;28;20028;-74
2022/04/20 05:33:58;;;;;;;10.43;7.10;;;4.20;99.90;;;;;;5064515;28;20046;-74
2022/04/20 05:36:24;;;;;;;12.52;7.15;;;4.20;99.90;;;;;;5069305;28;20035;-74
2022/04/20 05:41:40;;;;;;;13.85;6.80;;;4.30;99.90;;;;;;5083017;28;20182;-74
2022/04/20 05:44:10;;;;;;;11.30;6.87;;;4.30;99.90;;;;;;5069826;28;20134;-74
2022/04/20 05:46:37;;;;;;;10.40;6.95;;;4.40;99.90;;;;;;5087900;28;20146;-74
2022/04/20 05:49:03;;;;;;;9.32;6.07;;;4.40;99.90;;;;;;5087889;28;20119;-74
2022/04/20 05:51:29;;;;;;;11.25;7.32;;;4.40;99.90;;;;;;5073988;28;20040;-74
2022/04/20 05:53:55;;;;;;;11.48;7.40;;;4.70;99.90;;;;;;5074227;28;20386;-73
2022/04/20 05:56:21;;;;;;;9.40;6.95;;;4.50;99.90;;;;;;5074412;28;20042;-73
2022/04/20 05:58:50;;;;;;;10.73;6.78;;;4.60;99.90;;;;;;5086287;28;20390;-74
2022/04/20 06:01:19;;;;;;;10.55;6.90;;;4.70;99.90;;;;;;5053302;28;20040;-73
2022/04/20 06:03:46;;;;;;;11.55;7.43;;;4.80;99.90;;;;;;5083482;28;20105;-73
2022/04/20 06:06:12;;;;;;;10.77;7.82;;;4.90;99.90;;;;;;5091138;28;20405;-73
2022/04/20 06:08:38;;;;;;;9.95;7.03;;;5.00;99.90;;;;;;5071370;28;20039;-74
2022/04/20 06:11:04;;;;;;;9.35;7.10;;;5.10;99.90;;;;;;5086620;28;20118;-74
2022/04/20 06:13:29;;;;;;;13.65;7.05;;;5.20;99.90;;;;;;5052726;28;20040;-73
2022/04/20 06:15:56;;;;;;;11.43;7.15;;;5.30;99.90;;;;;;5089391;28;20413;-73
2022/04/20 06:18:22;;;;;;;10.27;7.00;;;5.40;99.90;;;;;;5089118;28;20048;-74
2022/04/20 06:20:48;;;;;;;10.48;6.78;;;5.50;99.90;;;;;;5077247;28;20036;-74
2022/04/20 06:23:13;;;;;;;10.82;6.68;;;5.70;99.90;;;;;;5088990;28;20389;-74
2022/04/20 06:25:39;;;;;;;11.82;6.90;;;5.80;99.90;;;;;;5082731;28;20401;-74
2022/04/20 06:28:05;;;;;;;9.90;6.60;;;5.90;99.90;;;;;;5102532;28;20051;-74
2022/04/20 06:30:31;;;;;;;9.68;6.57;;;6.00;99.90;;;;;;5087095;28;20040;-74
2022/04/20 06:32:56;;;;;;;9.60;6.60;;;6.20;99.90;;;;;;5078217;28;20053;-74
2022/04/20 06:35:22;;;;;;;11.02;6.47;;;6.30;99.90;;;;;;5087222;28;20074;-74
2022/04/20 06:37:48;;;;;;;9.38;6.30;;;6.40;99.90;;;;;;5057063;28;20193;-74
2022/04/20 06:40:15;;;;;;;10.80;6.38;;;6.50;99.90;;;;;;5089865;28;20086;-74
2022/04/20 06:42:41;;;;;;;7.07;5.70;;;6.70;99.90;;;;;;5056447;28;20043;-74
2022/04/20 06:45:07;;;;;;;10.85;5.88;;;6.80;99.90;;;;;;5090506;28;20088;-74
2022/04/20 06:47:34;;;;;;;10.60;5.72;;;6.90;99.90;;;;;;5089821;28;20096;-74
2022/04/20 06:50:00;;;;;;;8.38;5.90;;;7.00;99.90;;;;;;5090254;28;20189;-74
2022/04/20 07:00:39;;;;;;;9.20;5.35;;;7.60;99.90;;;;;;5090131;28;20128;-74
2022/04/20 07:03:08;;;;;;;10.23;5.68;;;7.80;99.90;;;;;;5089414;28;20116;-74
2022/04/20 07:05:35;;;;;;;11.80;5.45;;;7.90;99.90;;;;;;5089884;28;20087;-74
2022/04/20 07:08:01;;;;;;;9.38;5.43;;;8.00;99.90;;;;;;5089295;28;20032;-74
2022/04/20 07:10:27;;;;;;;7.60;5.22;;;8.20;99.90;;;;;;5089890;28;20101;-74
2022/04/20 07:12:53;;;;;;;10.45;5.40;;;8.30;99.90;;;;;;5058334;28;20043;-74
2022/04/20 07:15:19;;;;;;;8.80;6.03;;;8.50;99.90;;;;;;5089367;28;20122;-74
2022/04/20 07:17:45;;;;;;;7.30;5.50;;;8.80;99.90;;;;;;5039429;28;20040;-75
2022/04/20 07:20:17;;;;;;;8.45;5.15;;;9.30;99.90;;;;;;5089110;28;20042;-74
2022/04/20 07:22:46;;;;;;;8.17;4.97;;;10.30;99.90;;;;;;5072488;28;20039;-74
2022/04/20 07:25:12;;;;;;;6.47;4.85;;;11.30;99.90;;;;;;5072233;28;20361;-75
2022/04/20 07:27:38;;;;;;;7.75;5.35;;;12.20;99.90;;;;;;5089467;28;20460;-75
2022/04/20 07:30:04;;;;;;;6.80;4.95;;;12.80;99.90;;;;;;5072378;28;20458;-75
2022/04/20 07:32:30;;;;;;;7.93;4.15;;;13.40;97.60;;;;;;5072427;28;20400;-75
2022/04/20 07:34:55;;;;;;;5.55;4.30;;;13.80;96.10;;;;;;5072181;28;20039;-75
2022/04/20 07:37:21;;;;;;;9.60;4.25;;;14.30;95.00;;;;;;5072498;28;20385;-75
2022/04/20 07:39:47;;;;;;;5.40;4.05;;;14.40;93.40;;;;;;5072712;28;20055;-75
2022/04/20 07:42:13;;;;;;;12.38;4.85;;;14.90;92.30;;;;;;5085033;28;20032;-75
2022/04/20 07:44:39;;;;;;;6.65;3.95;;;15.20;91.50;;;;;;5078877;28;20038;-75
2022/04/20 07:47:05;;;;;;;4.20;3.45;;;15.40;90.80;;;;;;5088658;28;20051;-75
2022/04/20 07:52:19;;;;;;;5.90;3.85;;;15.90;88.20;;;;;;5092283;28;20040;-75
2022/04/20 07:54:45;;;;;;;6.18;3.90;;;16.20;84.00;;;;;;5088976;28;20523;-75
2022/04/20 07:57:14;;;;;;;5.30;3.95;;;16.20;83.50;;;;;;5088873;28;20036;-75
2022/04/20 07:59:40;;;;;;;6.45;3.72;;;16.40;81.40;;;;;;5060195;28;20076;-73
2022/04/20 08:02:07;;;;;;;7.32;3.80;;;16.50;79.60;;;;;;5056097;28;20043;-73
2022/04/20 08:04:33;;;;;;;5.43;3.53;;;16.50;78.50;;;;;;5082154;28;20047;-73
2022/04/20 08:06:58;;;;;;;5.60;3.55;;;16.60;77.70;;;;;;5088832;28;20040;-73
2022/04/20 08:09:24;;;;;;;5.45;3.40;;;16.60;76.80;;;;;;5088753;28;20040;-73
2022/04/20 08:11:50;;;;;;;8.18;4.22;;;16.80;75.90;;;;;;5088828;28;20122;-73
2022/04/20 08:14:16;;;;;;;6.05;3.45;;;16.70;77.00;;;;;;5074796;28;20040;-73
2022/04/20 08:16:47;;;;;;;7.43;3.20;;;17.00;76.60;;;;;;5088876;28;20505;-73
2022/04/20 08:19:13;;;;;;;4.18;3.50;;;16.80;71.50;;;;;;5083902;28;20048;-73
2022/04/20 08:21:39;;;;;;;6.22;3.40;;;17.10;73.20;;;;;;5070795;28;20130;-74
2022/04/20 08:24:05;;;;;;;3.83;2.85;;;17.20;72.00;;;;;;5080091;28;20036;-73
2022/04/20 08:26:31;;;;;;;4.47;3.70;;;17.30;70.90;;;;;;5065845;28;20056;-73
2022/04/20 08:28:56;;;;;;;6.70;3.50;;;17.30;70.70;;;;;;5088542;28;20047;-73
2022/04/20 08:31:22;;;;;;;5.00;3.17;;;17.60;71.00;;;;;;5088529;28;20036;-73
2022/04/20 08:33:48;;;;;;;4.25;3.00;;;17.40;68.90;;;;;;5088044;28;20040;-73
2022/04/20 08:36:15;;;;;;;3.95;3.00;;;17.70;69.10;;;;;;5055159;28;20462;-73
2022/04/20 08:38:42;;;;;;;6.65;3.55;;;17.60;67.30;;;;;;5091269;28;20320;-73
2022/04/20 08:41:10;;;;;;;4.18;3.28;;;17.80;67.70;;;;;;5059303;28;20115;-73
2022/04/20 08:43:40;;;;;;;6.50;3.55;;;18.10;66.60;;;;;;5092280;28;20548;-73
2022/04/20 08:46:08;;;;;;;5.07;3.00;;;18.20;67.10;;;;;;5093414;28;20089;-73
2022/04/20 08:48:34;;;;;;;4.15;3.25;;;18.10;65.30;;;;;;5091429;28;20040;-73
2022/04/20 08:51:04;;;;;;;8.30;3.55;;;18.20;66.70;;;;;;5062750;28;20287;-73
2022/04/20 08:53:29;;;;;;;4.43;3.10;;;18.40;66.50;;;;;;5089949;28;20576;-73
2022/04/20 08:57:15;;;;;;;4.65;3.35;;;18.60;65.80;;;;;;5092127;28;20127;-73
2022/04/20 08:58:48;;;;;;;5.75;3.00;;;18.80;65.00;;;;;;5086328;28;20051;-73
2022/04/20 09:01:15;;;;;;;6.22;3.28;;;18.70;63.10;;;;;;5067889;28;20040;-73
2022/04/20 09:03:46;;;;;;;5.95;3.80;;;18.60;63.10;;;;;;5091931;28;20051;-73
2022/04/20 09:06:12;;;;;;;4.38;2.70;;;18.90;62.40;;;;;;5075277;28;20042;-74
2022/04/20 09:08:38;;;;;;;4.68;3.20;;;19.00;62.50;;;;;;5091702;28;20553;-73
2022/04/20 09:11:04;;;;;;;6.40;2.63;;;19.00;61.70;;;;;;5075395;28;20123;-73
2022/04/20 09:13:38;;;;;;;4.25;2.60;;;19.10;61.50;;;;;;5092450;28;20424;-73
2022/04/20 09:16:08;;;;;;;4.68;2.92;;;19.00;60.30;;;;;;5071743;28;20191;-74
2022/04/20 09:18:35;;;;;;;2.88;2.53;;;19.20;60.70;;;;;;5069126;28;20051;-73
2022/04/20 09:21:05;;;;;;;5.82;3.38;;;19.30;60.20;;;;;;5091598;28;20116;-73
2022/04/20 09:23:32;;;;;;;5.00;3.15;;;19.20;59.80;;;;;;5087827;28;20532;-73
2022/04/20 09:26:16;;;;;;;17.90;3.15;;;19.40;59.90;;;;;;5071592;28;20433;-73
2022/04/20 09:29:02;;;;;;;4.47;2.50;;;19.40;57.50;;;;;;5089824;28;20570;-73
2022/04/20 09:31:48;;;;;;;4.57;2.95;;;19.00;57.70;;;;;;5091954;28;20499;-73
2022/04/20 09:34:33;;;;;;;4.00;2.90;;;18.70;58.10;;;;;;5079213;28;20109;-73
2022/04/20 09:37:12;;;;;;;5.68;2.67;;;18.50;56.40;;;;;;5091634;28;20118;-73
2022/04/20 09:39:38;;;;;;;5.80;2.90;;;18.70;57.20;;;;;;5091521;28;20485;-74
2022/04/20 09:42:05;;;;;;;6.13;2.90;;;18.80;57.70;;;;;;5091466;28;20036;-73
2022/04/20 09:44:31;;;;;;;4.57;2.53;;;18.80;58.10;;;;;;5082572;28;20045;-73
2022/04/20 09:49:58;;;;;;;6.20;3.05;;;18.70;57.30;;;;;;5081392;28;20053;-73
2022/04/20 09:52:47;;;;;;;3.53;2.73;;;18.80;55.40;;;;;;5059373;28;20033;-75
2022/04/20 09:55:26;;;;;;;2.97;2.50;;;18.70;58.40;;;;;;5088283;28;20282;-73
2022/04/20 09:57:52;;;;;;;6.22;3.08;;;18.80;57.80;;;;;;5090931;28;20079;-73
2022/04/20 10:00:17;;;;;;;4.07;2.90;;;18.40;57.10;;;;;;5074335;28;20067;-73
2022/04/20 10:02:49;;;;;;;3.30;2.40;;;18.70;57.90;;;;;;5082385;28;20504;-73
2022/04/20 10:05:20;;;;;;;3.17;2.88;;;19.10;58.30;;;;;;5086402;28;20044;-73
2022/04/20 10:07:46;;;;;;;9.85;2.92;;;19.10;57.70;;;;;;5074519;28;20071;-73
2022/04/20 10:10:11;;;;;;;4.97;2.53;;;19.20;58.10;;;;;;5090629;28;20449;-73
2022/04/20 10:12:40;;;;;;;3.72;2.80;;;19.20;58.20;;;;;;5091266;28;20414;-73
2022/04/20 10:17:54;;;;;;;3.67;2.63;;;19.00;56.80;;;;;;5107996;28;20051;-73
2022/04/20 10:20:22;;;;;;;3.17;2.60;;;19.10;57.70;;;;;;5073717;28;20046;-73
2022/04/20 10:22:48;;;;;;;4.63;2.83;;;19.10;57.40;;;;;;5090649;28;20122;-73
2022/04/20 10:25:14;;;;;;;5.78;3.00;;;19.00;57.30;;;;;;5090391;28;20111;-73
2022/04/20 10:27:58;;;;;;;3.83;2.80;;;18.90;56.80;;;;;;5090122;28;20044;-73
2022/04/20 10:30:38;;;;;;;7.15;2.53;;;18.70;55.60;;;;;;5090337;28;20036;-73
2022/04/20 10:33:16;;;;;;;3.67;2.50;;;18.70;57.40;;;;;;5077000;28;20115;-73
2022/04/20 10:36:04;;;;;;;5.03;2.50;;;18.80;57.00;;;;;;5073331;28;20101;-73
2022/04/20 10:38:32;;;;;;;5.70;2.60;;;18.80;57.20;;;;;;5073308;28;20075;-73
2022/04/20 10:41:02;;;;;;;3.08;2.40;;;18.70;56.90;;;;;;5089897;28;20581;-73
2022/04/20 10:43:29;;;;;;;4.85;2.38;;;18.70;56.70;;;;;;5082010;28;20036;-73
2022/04/20 10:46:11;;;;;;;2.95;2.38;;;18.60;57.00;;;;;;5084197;28;20503;-73
2022/04/20 10:49:02;;;;;;;4.00;2.30;;;18.60;55.10;;;;;;5089959;28;20040;-73
2022/04/20 10:51:32;;;;;;;2.88;2.17;;;18.90;55.90;;;;;;5089798;28;20047;-73
2022/04/20 10:54:27;;;;;;;5.40;2.40;;;19.20;57.10;;;;;;5090086;28;20040;-73
2022/04/20 10:57:07;;;;;;;4.38;2.10;;;19.60;55.80;;;;;;5069919;28;20048;-73
2022/04/20 10:59:33;;;;;;;5.03;2.40;;;19.90;54.90;;;;;;5089691;28;20043;-73
2022/04/20 11:01:59;;;;;;;5.82;2.40;;;19.70;55.60;;;;;;5075730;28;20036;-73
2022/04/20 11:04:41;;;;;;;3.45;2.40;;;19.90;54.30;;;;;;5089186;28;20489;-73
2022/04/20 11:07:07;;;;;;;4.35;2.47;;;19.80;53.90;;;;;;5089907;28;20042;-73
2022/04/20 11:09:45;;;;;;;3.28;2.13;;;19.40;52.90;;;;;;5089711;28;20047;-73
2022/04/20 11:18:45;;;;;;;3.00;2.35;;;19.30;52.70;;;;;;5094136;28;20517;-73
2022/04/20 11:21:19;;;;;;;2.15;1.83;;;19.00;54.50;;;;;;5093112;28;20039;-73
2022/04/20 11:24:05;;;;;;;4.57;2.60;;;18.90;53.40;;;;;;5089247;28;20412;-73
2022/04/20 11:26:51;;;;;;;4.45;2.60;;;18.90;54.00;;;;;;5088722;28;20091;-73
2022/04/20 11:29:23;;;;;;;5.38;2.03;;;19.00;54.90;;;;;;5078337;28;20497;-73
2022/04/20 11:31:58;;;;;;;3.42;2.10;;;18.90;54.80;;;;;;5070408;28;20370;-73
2022/04/20 11:34:26;;;;;;;2.45;1.95;;;19.10;54.30;;;;;;5078550;28;20417;-73
2022/04/20 11:36:54;;;;;;;2.25;2.03;;;19.10;54.00;;;;;;5074689;28;20098;-73
2022/04/20 11:39:22;;;;;;;3.65;2.50;;;19.30;55.20;;;;;;5089180;28;20036;-72
2022/04/20 11:41:52;;;;;;;1.90;1.77;;;19.40;53.80;;;;;;5088842;28;20047;-72
2022/04/20 11:44:28;;;;;;;3.85;2.22;;;19.30;53.00;;;;;;5089450;28;20133;-73
2022/04/20 11:47:02;;;;;;;2.42;2.10;;;19.10;53.70;;;;;;5088699;28;20133;-73
2022/04/20 11:49:41;;;;;;;3.58;2.38;;;19.00;56.30;;;;;;5089153;28;20111;-73
2022/04/20 11:52:14;;;;;;;3.75;2.42;;;19.00;53.00;;;;;;5071995;28;20106;-73
2022/04/20 11:54:41;;;;;;;2.35;2.15;;;19.10;54.40;;;;;;5089206;28;20032;-73
2022/04/20 11:57:09;;;;;;;2.60;2.05;;;19.20;53.30;;;;;;5072167;28;20097;-73
2022/04/20 11:59:45;;;;;;;4.85;2.20;;;19.20;53.90;;;;;;5089427;28;20044;-73
2022/04/20 12:02:13;;;;;;;3.45;2.58;;;19.40;54.40;;;;;;5072226;28;20046;-73
2022/04/20 12:04:39;;;;;;;2.72;2.40;;;19.30;53.60;;;;;;5088546;28;20400;-73
2022/04/20 12:07:05;;;;;;;4.65;2.50;;;19.20;54.20;;;;;;5088348;28;20075;-73
2022/04/20 12:09:35;;;;;;;2.97;2.67;;;19.20;54.10;;;;;;5089080;28;20097;-73
2022/04/20 12:12:03;;;;;;;2.65;2.38;;;19.20;53.70;;;;;;5071579;28;20055;-73
2022/04/20 12:14:32;;;;;;;4.28;2.80;;;19.20;55.60;;;;;;5085987;28;20035;-71
2022/04/20 12:17:01;;;;;;;3.30;2.58;;;19.40;55.20;;;;;;5080561;28;20047;-71
2022/04/20 12:19:30;;;;;;;5.07;2.72;;;19.40;54.40;;;;;;5055364;28;20267;-71
2022/04/20 12:22:03;;;;;;;4.63;2.95;;;19.40;54.50;;;;;;5057897;28;20075;-71
2022/04/20 12:24:29;;;;;;;2.90;2.60;;;19.30;54.60;;;;;;5060324;28;20050;-72
2022/04/20 12:26:57;;;;;;;5.22;3.05;;;19.40;54.60;;;;;;5077490;28;20774;-71
2022/04/20 12:29:24;;;;;;;4.65;3.05;;;19.50;55.30;;;;;;5076018;28;20040;-71
2022/04/20 12:31:54;;;;;;;4.03;3.15;;;19.60;55.30;;;;;;5076344;28;20036;-71
2022/04/20 12:34:23;;;;;;;6.10;3.20;;;19.70;55.60;;;;;;5091018;28;20112;-71
2022/04/20 12:36:54;;;;;;;4.38;3.53;;;19.70;55.20;;;;;;5076300;28;20036;-71
2022/04/20 12:39:36;;;;;;;4.03;3.20;;;19.80;56.10;;;;;;5059101;28;20048;-71
2022/04/20 12:42:07;;;;;;;5.78;3.33;;;19.90;57.00;;;;;;5078656;28;20132;-71
2022/04/20 12:44:35;;;;;;;4.50;3.20;;;19.90;56.20;;;;;;5074083;28;21739;-70
2022/04/20 12:47:29;;;;;;;9.18;3.47;;;19.90;57.30;;;;;;5091549;28;20054;-71
2022/04/20 12:50:03;;;;;;;8.70;4.10;;;19.70;55.00;;;;;;5077022;28;20554;-71
2022/04/20 12:52:30;;;;;;;5.13;3.33;;;19.70;56.40;;;;;;5073699;28;20074;-71
2022/04/20 12:55:06;;;;;;;6.15;3.45;;;19.80;55.90;;;;;;5091781;28;20121;-70
2022/04/20 13:03:11;;;;;;;4.20;3.75;;;20.00;56.10;;;;;;5074477;28;20044;-71
2022/04/20 13:05:39;;;;;;;6.97;4.10;;;20.10;56.00;;;;;;5092554;28;20048;-71
2022/04/20 13:08:07;;;;;;;5.53;3.75;;;20.10;57.40;;;;;;5076152;28;20036;-70
2022/04/20 13:10:37;;;;;;;4.82;3.40;;;20.30;57.30;;;;;;5074880;28;20036;-71
2022/04/20 13:13:04;;;;;;;6.47;4.00;;;20.20;57.40;;;;;;5077672;28;20036;-70
2022/04/20 13:15:30;;;;;;;5.82;4.00;;;20.30;56.90;;;;;;5071327;28;20032;-70
2022/04/20 13:17:57;;;;;;;7.93;3.90;;;20.20;55.20;;;;;;5080739;28;20047;-71
2022/04/20 13:20:28;;;;;;;8.40;3.97;;;20.30;56.80;;;;;;5064781;28;20036;-71
2022/04/20 13:22:58;;;;;;;7.22;4.00;;;20.30;56.90;;;;;;5049132;28;20032;-71
2022/04/20 13:28:09;;;;;;;6.88;4.00;;;20.70;56.20;;;;;;5071756;28;20048;-72
2022/04/20 13:30:36;;;;;;;7.57;4.05;;;20.90;56.30;;;;;;5068708;28;20169;-73
2022/04/20 13:33:04;;;;;;;4.05;3.42;;;20.90;55.80;;;;;;5105391;28;20092;-72
2022/04/20 13:35:30;;;;;;;4.63;3.78;;;20.90;56.40;;;;;;5104731;28;20714;-71
2022/04/20 13:37:56;;;;;;;4.55;3.80;;;21.10;56.30;;;;;;5054118;28;20170;-72